createdAt,value
2019-01-24T00:02:10.160Z,48.38
2019-01-24T00:04:39.262Z,42.90
2019-01-24T00:07:10.905Z,37.67
2019-01-24T00:09:39.710Z,42.70
2019-01-24T00:12:08.670Z,47.17
2019-01-24T00:14:40.263Z,39.58
2019-01-24T00:17:09.081Z,41.13
2019-01-24T00:19:37.948Z,55.00
2019-01-24T00:22:06.962Z,43.13
2019-01-24T00:24:36.242Z,43.90
2019-01-24T00:27:05.297Z,43.98
2019-01-24T00:29:34.301Z,37.17
2019-01-24T00:32:03.498Z,40.55
2019-01-24T00:34:35.631Z,48.90
2019-01-24T00:37:04.719Z,41.13
2019-01-24T00:39:34.149Z,42.93
2019-01-24T00:42:03.084Z,46.75
2019-01-24T00:44:32.026Z,44.77
2019-01-24T00:47:02.698Z,41.68
2019-01-24T00:49:31.724Z,42.67
2019-01-24T00:52:01.768Z,38.02
2019-01-24T00:54:30.537Z,46.00
2019-01-24T00:56:59.667Z,41.13
2019-01-24T00:59:28.661Z,40.35
2019-01-24T01:01:57.654Z,43.55
2019-01-24T01:04:29.787Z,43.58
2019-01-24T01:06:57.359Z,43.25
2019-01-24T01:09:26.430Z,43.28
2019-01-24T01:11:55.206Z,49.45
2019-01-24T01:14:24.065Z,32.78
2019-01-24T01:16:53.424Z,41.00
2019-01-24T01:19:22.358Z,46.13
2019-01-24T01:21:51.300Z,43.35
2019-01-24T01:24:20.199Z,47.17
2019-01-24T01:26:49.559Z,40.25
2019-01-24T01:29:19.492Z,40.98
2019-01-24T01:31:48.932Z,58.73
2019-01-24T01:34:23.518Z,48.42
2019-01-24T01:36:52.847Z,44.50
2019-01-24T01:39:21.810Z,35.75
2019-01-24T01:41:50.839Z,43.02
2019-01-24T01:44:20.556Z,38.80
2019-01-24T01:46:49.694Z,41.50
2019-01-24T01:49:18.789Z,36.77
2019-01-24T01:51:47.863Z,44.15
2019-01-24T01:54:20.141Z,35.75
2019-01-24T01:56:51.419Z,45.23
2019-01-24T01:59:20.449Z,37.60
2019-01-24T02:01:49.582Z,32.23
2019-01-24T02:04:18.579Z,38.42
2019-01-24T02:06:47.366Z,42.75
2019-01-24T02:09:16.259Z,44.45
2019-01-24T02:11:45.198Z,44.90
2019-01-24T02:14:14.179Z,37.08
2019-01-24T02:16:42.993Z,45.63
2019-01-24T02:19:12.125Z,40.15
2019-01-24T02:21:41.117Z,40.43
2019-01-24T02:24:09.965Z,43.55
2019-01-24T02:26:38.835Z,40.75
2019-01-24T02:29:07.953Z,53.10
2019-01-24T02:31:37.000Z,49.18
2019-01-24T02:34:06.051Z,40.40
2019-01-24T02:36:34.875Z,31.55
2019-01-24T02:39:05.448Z,35.40
2019-01-24T02:41:34.297Z,46.83
2019-01-24T02:44:03.231Z,36.55
2019-01-24T02:46:32.137Z,44.83
2019-01-24T02:49:01.124Z,39.80
2019-01-24T02:51:30.071Z,42.03
2019-01-24T02:53:59.153Z,42.83
2019-01-24T02:56:28.119Z,43.45
2019-01-24T02:58:57.120Z,52.65
2019-01-24T03:01:25.893Z,32.88
2019-01-24T03:03:55.442Z,47.88
2019-01-24T03:06:24.436Z,43.10
2019-01-24T03:08:53.483Z,39.73
2019-01-24T03:11:22.527Z,43.58
2019-01-24T03:13:51.673Z,41.88
2019-01-24T03:16:23.216Z,44.60
2019-01-24T03:18:54.526Z,41.58
2019-01-24T03:21:27.249Z,49.58
2019-01-24T03:23:58.889Z,43.35
2019-01-24T03:26:38.271Z,41.95
2019-01-24T03:29:09.078Z,35.38
2019-01-24T03:31:38.269Z,40.35
2019-01-24T03:34:07.300Z,36.35
2019-01-24T03:36:39.657Z,39.40
2019-01-24T03:39:09.662Z,42.53
2019-01-24T03:41:38.433Z,40.10
2019-01-24T03:44:07.472Z,41.88
2019-01-24T03:46:36.737Z,41.60
2019-01-24T03:49:11.977Z,42.83
2019-01-24T03:51:42.605Z,47.10
2019-01-24T03:54:11.684Z,44.73
2019-01-24T03:56:41.367Z,37.83
2019-01-24T03:59:10.453Z,40.58
2019-01-24T04:01:39.642Z,39.48
2019-01-24T04:04:08.651Z,47.98
2019-01-24T04:06:37.465Z,43.63
2019-01-24T04:09:08.836Z,42.88
2019-01-24T04:11:37.779Z,43.78
2019-01-24T04:14:06.882Z,44.63
2019-01-24T04:16:35.969Z,39.55
2019-01-24T04:19:05.309Z,54.45
2019-01-24T04:21:34.414Z,41.25
2019-01-24T04:24:03.350Z,53.48
2019-01-24T04:26:33.249Z,45.78
2019-01-24T04:29:02.462Z,48.42
2019-01-24T04:31:31.475Z,51.42
2019-01-24T04:34:00.442Z,48.42
2019-01-24T04:36:29.386Z,43.17
2019-01-24T04:38:58.211Z,42.73
2019-01-24T04:41:27.522Z,56.33
2019-01-24T04:43:58.718Z,47.35
2019-01-24T04:46:31.382Z,46.73
2019-01-24T04:49:02.341Z,49.60
2019-01-24T04:51:31.587Z,53.10
2019-01-24T04:54:00.576Z,45.83
2019-01-24T04:56:29.660Z,46.28
2019-01-24T04:58:59.754Z,47.65
2019-01-24T05:01:33.135Z,51.70
2019-01-24T05:03:59.555Z,44.90
2019-01-24T05:06:28.877Z,56.00
2019-01-24T05:08:58.274Z,44.40
2019-01-24T05:11:27.369Z,54.45
2019-01-24T05:13:56.372Z,48.95
2019-01-24T05:16:25.376Z,54.42
2019-01-24T05:18:54.542Z,39.48
2019-01-24T05:21:23.440Z,39.27
2019-01-24T05:23:52.425Z,39.73
2019-01-24T05:26:21.531Z,46.37
2019-01-24T05:28:50.513Z,46.25
2019-01-24T05:31:19.635Z,54.58
2019-01-24T05:33:50.073Z,45.48
2019-01-24T05:36:19.043Z,38.55
2019-01-24T05:38:54.030Z,37.05
2019-01-24T05:41:23.168Z,50.73
2019-01-24T05:43:58.128Z,48.25
2019-01-24T05:46:27.401Z,41.68
2019-01-24T05:48:56.343Z,49.23
2019-01-24T05:51:25.302Z,44.70
2019-01-24T05:53:54.302Z,40.83
2019-01-24T05:56:23.415Z,42.03
2019-01-24T05:58:52.526Z,44.27
2019-01-24T06:01:28.645Z,41.85
2019-01-24T06:04:00.006Z,48.10
2019-01-24T06:06:30.493Z,39.13
2019-01-24T06:08:59.543Z,42.10
2019-01-24T06:11:28.413Z,37.78
2019-01-24T06:13:57.538Z,36.28
2019-01-24T06:16:26.650Z,49.93
2019-01-24T06:18:55.816Z,51.05
2019-01-24T06:21:24.695Z,43.38
2019-01-24T06:23:54.003Z,36.65
2019-01-24T06:26:23.054Z,38.30
2019-01-24T06:28:52.003Z,40.35
2019-01-24T06:31:20.873Z,42.78
2019-01-24T06:33:50.083Z,38.80
2019-01-24T06:36:19.375Z,42.08
2019-01-24T06:38:48.475Z,32.78
2019-01-24T06:41:17.660Z,32.98
2019-01-24T06:43:46.755Z,30.55
2019-01-24T06:46:15.835Z,37.15
2019-01-24T06:48:44.901Z,33.80
2019-01-24T06:51:13.759Z,39.20
2019-01-24T06:53:43.001Z,27.48
2019-01-24T06:56:11.825Z,32.20
2019-01-24T06:58:40.701Z,31.97
2019-01-24T07:01:09.735Z,33.42
2019-01-24T07:03:38.611Z,31.80
2019-01-24T07:06:09.849Z,33.15
2019-01-24T07:08:41.947Z,32.33
2019-01-24T07:11:10.769Z,36.00
2019-01-24T07:13:39.675Z,35.45
2019-01-24T07:16:08.650Z,33.38
2019-01-24T07:18:37.741Z,39.45
2019-01-24T07:21:06.673Z,26.40
2019-01-24T07:23:35.486Z,38.73
2019-01-24T07:26:04.522Z,31.95
2019-01-24T07:28:33.896Z,26.70
2019-01-24T07:31:02.962Z,32.58
2019-01-24T07:33:33.558Z,26.62
2019-01-24T07:36:02.519Z,25.43
2019-01-24T07:38:31.570Z,33.38
2019-01-24T07:41:00.552Z,34.78
2019-01-24T07:43:29.738Z,33.02
2019-01-24T07:45:58.677Z,31.50
2019-01-24T07:48:27.815Z,31.42
2019-01-24T07:50:56.886Z,27.25
2019-01-24T07:53:26.189Z,31.00
2019-01-24T07:55:55.802Z,31.48
2019-01-24T07:58:24.690Z,33.65
2019-01-24T08:00:53.552Z,33.25
2019-01-24T08:03:22.604Z,33.88
2019-01-24T08:05:51.687Z,28.12
2019-01-24T08:08:23.314Z,29.72
2019-01-24T08:10:52.652Z,26.73
2019-01-24T08:13:23.300Z,26.62
2019-01-24T08:15:52.408Z,28.30
2019-01-24T08:18:21.506Z,26.00
2019-01-24T08:20:50.658Z,27.58
2019-01-24T08:23:19.865Z,29.95
2019-01-24T08:25:48.742Z,32.95
2019-01-24T08:28:17.554Z,26.30
2019-01-24T08:30:54.626Z,27.60
2019-01-24T08:33:23.549Z,27.27
2019-01-24T08:35:52.499Z,28.02
2019-01-24T08:38:21.389Z,34.83
2019-01-24T08:40:50.381Z,33.10
2019-01-24T08:43:19.317Z,40.73
2019-01-24T08:45:48.939Z,28.47
2019-01-24T08:48:18.010Z,30.02
2019-01-24T08:50:47.302Z,36.45
2019-01-24T08:53:17.260Z,34.92
2019-01-24T08:55:46.385Z,30.57
2019-01-24T08:58:15.577Z,30.55
2019-01-24T09:00:44.716Z,36.48
2019-01-24T09:03:13.899Z,35.58
2019-01-24T09:05:42.942Z,36.95
2019-01-24T09:08:12.034Z,39.40
2019-01-24T09:10:41.560Z,32.35
2019-01-24T09:13:10.725Z,34.50
2019-01-24T09:15:39.799Z,32.58
2019-01-24T09:18:11.113Z,26.40
2019-01-24T09:20:40.233Z,34.20
2019-01-24T09:23:09.341Z,34.08
2019-01-24T09:25:41.308Z,33.60
2019-01-24T09:28:14.766Z,30.60
2019-01-24T09:30:40.837Z,31.40
2019-01-24T09:33:09.848Z,28.40
2019-01-24T09:35:39.323Z,36.95
2019-01-24T09:38:08.439Z,30.60
2019-01-24T09:40:37.615Z,38.60
2019-01-24T09:43:06.777Z,31.62
2019-01-24T09:45:35.923Z,30.70
2019-01-24T09:48:06.612Z,41.02
2019-01-24T09:50:37.503Z,42.08
2019-01-24T09:53:06.424Z,34.85
2019-01-24T09:55:44.364Z,29.37
2019-01-24T09:58:13.475Z,29.57
2019-01-24T10:00:42.699Z,34.27
2019-01-24T10:03:11.948Z,34.65
2019-01-24T10:05:44.097Z,29.07
2019-01-24T10:08:12.898Z,32.65
2019-01-24T10:10:45.791Z,34.43
2019-01-24T10:13:14.823Z,33.05
2019-01-24T10:15:45.505Z,32.98
2019-01-24T10:18:14.697Z,38.53
2019-01-24T10:20:43.717Z,28.17
2019-01-24T10:23:12.767Z,30.65
2019-01-24T10:25:42.206Z,29.60
2019-01-24T10:28:11.211Z,31.30
2019-01-24T10:30:43.133Z,32.40
2019-01-24T10:33:11.811Z,28.42
2019-01-24T10:35:41.349Z,33.75
2019-01-24T10:38:10.731Z,36.10
2019-01-24T10:40:39.683Z,36.53
2019-01-24T10:43:09.603Z,32.15
2019-01-24T10:45:38.615Z,35.17
2019-01-24T10:48:12.736Z,37.78
2019-01-24T10:50:41.948Z,33.40
2019-01-24T10:53:14.910Z,36.33
2019-01-24T10:55:43.884Z,28.23
2019-01-24T10:58:12.902Z,28.30
2019-01-24T11:00:42.960Z,38.40
2019-01-24T11:03:14.229Z,38.78
2019-01-24T11:05:43.375Z,36.55
2019-01-24T11:08:12.317Z,36.53
2019-01-24T11:10:41.346Z,37.67
2019-01-24T11:13:10.348Z,36.98
2019-01-24T11:15:42.220Z,35.60
2019-01-24T11:18:11.336Z,29.70
2019-01-24T11:20:40.446Z,39.23
2019-01-24T11:23:09.803Z,37.60
2019-01-24T11:25:39.143Z,35.50
2019-01-24T11:28:08.671Z,34.05
2019-01-24T11:30:37.644Z,49.15
2019-01-24T11:33:07.280Z,47.40
2019-01-24T11:35:40.044Z,48.60
2019-01-24T11:38:09.342Z,38.35
2019-01-24T11:40:43.813Z,47.05
2019-01-24T11:43:13.574Z,49.00
2019-01-24T11:45:47.336Z,43.78
2019-01-24T11:48:16.466Z,42.45
2019-01-24T11:50:45.350Z,40.63
2019-01-24T11:53:14.240Z,37.60
2019-01-24T11:55:43.539Z,42.15
2019-01-24T11:58:12.644Z,41.73
2019-01-24T12:00:49.239Z,62.23
2019-01-24T12:03:21.589Z,56.33
2019-01-24T12:05:50.578Z,45.50
2019-01-24T12:08:19.516Z,55.70
2019-01-24T12:10:48.682Z,55.30
2019-01-24T12:13:19.368Z,55.83
2019-01-24T12:15:50.076Z,53.63
2019-01-24T12:18:19.682Z,45.25
2019-01-24T12:20:54.310Z,48.15
2019-01-24T12:23:30.960Z,49.90
2019-01-24T12:26:00.155Z,53.02
2019-01-24T12:28:31.927Z,54.15
2019-01-24T12:31:01.074Z,51.45
2019-01-24T12:33:29.990Z,61.75
2019-01-24T12:35:58.956Z,58.33
2019-01-24T12:38:28.565Z,49.48
2019-01-24T12:40:57.434Z,60.40
2019-01-24T12:43:26.591Z,54.10
2019-01-24T12:45:55.585Z,57.58
2019-01-24T12:48:24.707Z,59.05
2019-01-24T12:50:53.621Z,52.93
2019-01-24T12:53:22.689Z,53.60
2019-01-24T12:55:51.673Z,49.73
2019-01-24T12:58:20.726Z,44.80
2019-01-24T13:00:49.867Z,56.23
2019-01-24T13:03:19.069Z,53.92
2019-01-24T13:05:48.269Z,52.00
2019-01-24T13:08:21.375Z,45.43
2019-01-24T13:10:50.607Z,55.38
2019-01-24T13:13:19.813Z,45.67
2019-01-24T13:15:48.743Z,44.03
2019-01-24T13:18:17.591Z,41.37
2019-01-24T13:20:46.543Z,46.33
2019-01-24T13:23:15.549Z,47.15
2019-01-24T13:25:44.546Z,43.80
2019-01-24T13:28:13.689Z,41.75
2019-01-24T13:30:42.552Z,47.93
2019-01-24T13:33:11.492Z,47.25
2019-01-24T13:35:40.743Z,39.23
2019-01-24T13:38:09.675Z,46.83
2019-01-24T13:40:38.987Z,34.78
2019-01-24T13:43:08.227Z,46.85
2019-01-24T13:45:40.681Z,42.05
2019-01-24T13:48:09.653Z,36.55
2019-01-24T13:50:38.799Z,43.33
2019-01-24T13:53:07.767Z,41.02
2019-01-24T13:55:36.953Z,39.88
2019-01-24T13:58:06.953Z,49.67
2019-01-24T14:00:37.765Z,36.90
2019-01-24T14:03:45.716Z,53.42
2019-01-24T14:06:14.845Z,43.40
2019-01-24T14:08:43.833Z,61.13
2019-01-24T14:11:18.013Z,41.73
2019-01-24T14:13:43.354Z,53.95
2019-01-24T14:16:12.436Z,39.40
2019-01-24T14:18:41.606Z,47.62
2019-01-24T14:21:11.056Z,34.50
2019-01-24T14:23:40.125Z,40.23
2019-01-24T14:26:11.713Z,41.50
2019-01-24T14:28:40.763Z,47.38
2019-01-24T14:31:12.462Z,43.90
2019-01-24T14:33:41.444Z,39.53
2019-01-24T14:36:15.240Z,44.58
2019-01-24T14:38:44.386Z,45.33
2019-01-24T14:41:13.583Z,57.10
2019-01-24T14:43:42.456Z,48.15
2019-01-24T14:46:11.345Z,49.23
2019-01-24T14:48:40.828Z,48.58
2019-01-24T14:51:10.238Z,52.25
2019-01-24T14:53:42.626Z,43.48
2019-01-24T14:56:11.824Z,51.55
2019-01-24T14:58:42.866Z,47.43
2019-01-24T15:01:17.860Z,46.95
2019-01-24T15:03:52.084Z,41.70
2019-01-24T15:06:21.260Z,46.50
2019-01-24T15:08:50.260Z,54.13
2019-01-24T15:11:22.351Z,43.33
2019-01-24T15:13:51.285Z,54.03
2019-01-24T15:16:20.248Z,45.10
2019-01-24T15:18:49.172Z,48.83
2019-01-24T15:21:18.512Z,50.83
2019-01-24T15:23:47.389Z,44.75
2019-01-24T15:26:16.424Z,52.60
2019-01-24T15:28:45.758Z,41.88
2019-01-24T15:31:14.765Z,42.50
2019-01-24T15:33:48.701Z,36.70
2019-01-24T15:36:17.662Z,36.08
2019-01-24T15:38:49.476Z,46.00
2019-01-24T15:41:18.760Z,40.30
2019-01-24T15:43:47.704Z,42.67
2019-01-24T15:46:17.078Z,45.17
2019-01-24T15:48:47.957Z,43.38
2019-01-24T15:51:17.238Z,43.42
2019-01-24T15:53:46.831Z,56.18
2019-01-24T15:56:15.726Z,38.95
2019-01-24T15:58:45.127Z,46.77
2019-01-24T16:01:17.992Z,56.18
2019-01-24T16:03:48.931Z,45.63
2019-01-24T16:06:17.947Z,44.58
2019-01-24T16:08:46.870Z,48.98
2019-01-24T16:11:15.689Z,47.27
2019-01-24T16:13:44.721Z,47.00
2019-01-24T16:16:13.835Z,60.23
2019-01-24T16:18:42.742Z,46.77
2019-01-24T16:21:11.734Z,49.73
2019-01-24T16:23:41.123Z,52.48
2019-01-24T16:26:10.226Z,47.83
2019-01-24T16:28:39.232Z,50.25
2019-01-24T16:31:08.399Z,51.73
2019-01-24T16:33:37.403Z,45.92
2019-01-24T16:36:06.507Z,52.73
2019-01-24T16:38:35.775Z,62.55
2019-01-24T16:41:05.088Z,51.05
2019-01-24T16:43:33.989Z,55.10
2019-01-24T16:46:03.053Z,51.28
2019-01-24T16:48:32.455Z,49.40
2019-01-24T16:51:01.387Z,60.25
2019-01-24T16:53:30.377Z,72.50
2019-01-24T16:55:59.463Z,58.42
2019-01-24T16:58:28.313Z,61.88
2019-01-24T17:01:01.823Z,47.58
2019-01-24T17:03:30.734Z,56.98
2019-01-24T17:05:59.629Z,51.20
2019-01-24T17:08:28.479Z,58.95
2019-01-24T17:10:57.417Z,52.98
2019-01-24T17:13:26.383Z,47.27
2019-01-24T17:15:57.225Z,55.03
2019-01-24T17:18:26.280Z,62.13
2019-01-24T17:20:55.407Z,55.90
2019-01-24T17:23:24.375Z,59.05
2019-01-24T17:25:53.464Z,69.12
2019-01-24T17:28:22.256Z,52.80
2019-01-24T17:30:51.243Z,54.80
2019-01-24T17:33:20.125Z,63.45
2019-01-24T17:35:49.266Z,41.88
2019-01-24T17:38:23.605Z,53.25
2019-01-24T17:40:48.648Z,64.37
2019-01-24T17:43:17.552Z,57.93
2019-01-24T17:45:46.584Z,60.38
2019-01-24T17:48:15.586Z,74.55
2019-01-24T17:50:44.418Z,52.43
2019-01-24T17:53:13.238Z,62.03
2019-01-24T17:55:44.142Z,55.45
2019-01-24T17:58:13.136Z,46.53
2019-01-24T18:00:47.301Z,63.17
2019-01-24T18:03:16.146Z,61.83
2019-01-24T18:05:44.976Z,57.03
2019-01-24T18:08:13.914Z,62.88
2019-01-24T18:10:44.298Z,70.12
2019-01-24T18:13:13.260Z,56.75
2019-01-24T18:15:42.208Z,58.92
2019-01-24T18:18:15.766Z,50.43
2019-01-24T18:20:45.466Z,47.48
2019-01-24T18:23:14.498Z,48.55
2019-01-24T18:25:43.511Z,60.85
2019-01-24T18:28:13.366Z,50.50
2019-01-24T18:30:42.630Z,58.25
2019-01-24T18:33:11.956Z,56.35
2019-01-24T18:35:41.047Z,53.10
2019-01-24T18:38:14.422Z,56.10
2019-01-24T18:40:43.571Z,47.53
2019-01-24T18:43:24.763Z,60.67
2019-01-24T18:45:56.878Z,49.33
2019-01-24T18:48:26.017Z,45.58
2019-01-24T18:50:54.986Z,45.03
2019-01-24T18:53:25.151Z,45.65
2019-01-24T18:55:54.082Z,52.75
2019-01-24T18:58:22.987Z,49.45
2019-01-24T19:00:52.257Z,56.48
2019-01-24T19:03:21.040Z,58.78
2019-01-24T19:05:49.948Z,51.92
2019-01-24T19:08:19.054Z,50.88
2019-01-24T19:10:48.131Z,44.95
2019-01-24T19:13:18.249Z,54.65
2019-01-24T19:15:48.819Z,59.73
2019-01-24T19:18:17.749Z,46.18
2019-01-24T19:20:46.737Z,62.38
2019-01-24T19:23:15.695Z,56.08
2019-01-24T19:25:44.914Z,43.02
2019-01-24T19:28:18.273Z,48.98
2019-01-24T19:30:47.338Z,57.15
2019-01-24T19:33:17.939Z,55.25
2019-01-24T19:35:47.153Z,55.05
2019-01-24T19:38:16.140Z,55.15
2019-01-24T19:40:47.210Z,50.88
2019-01-24T19:43:16.089Z,43.48
2019-01-24T19:45:45.125Z,72.47
2019-01-24T19:48:14.108Z,53.98
2019-01-24T19:50:45.093Z,55.35
2019-01-24T19:53:14.122Z,60.23
2019-01-24T19:55:44.751Z,58.45
2019-01-24T19:58:13.720Z,54.73
2019-01-24T20:00:42.833Z,68.60
2019-01-24T20:03:12.714Z,53.28
2019-01-24T20:05:42.323Z,56.00
2019-01-24T20:08:11.459Z,51.77
2019-01-24T20:10:40.520Z,58.55
2019-01-24T20:13:09.592Z,48.28
2019-01-24T20:15:38.739Z,38.00
2019-01-24T20:18:08.307Z,45.23
2019-01-24T20:20:37.709Z,48.28
2019-01-24T20:23:06.878Z,45.88
2019-01-24T20:25:36.521Z,46.25
2019-01-24T20:28:06.025Z,47.95
2019-01-24T20:30:35.115Z,43.63
2019-01-24T20:33:04.553Z,41.25
2019-01-24T20:35:45.396Z,38.23
2019-01-24T20:38:14.447Z,37.90
2019-01-24T20:40:43.751Z,40.43
2019-01-24T20:43:13.897Z,51.55
2019-01-24T20:45:42.933Z,51.83
2019-01-24T20:48:12.125Z,42.62
2019-01-24T20:50:42.851Z,39.40
2019-01-24T20:53:11.920Z,37.58
2019-01-24T20:55:41.325Z,40.75
2019-01-24T20:58:12.610Z,41.65
2019-01-24T21:00:41.618Z,30.55
2019-01-24T21:03:10.700Z,41.35
2019-01-24T21:05:40.384Z,38.75
2019-01-24T21:08:09.506Z,48.20
2019-01-24T21:10:42.072Z,40.20
2019-01-24T21:13:11.274Z,46.55
2019-01-24T21:15:40.437Z,55.15
2019-01-24T21:18:09.432Z,32.90
2019-01-24T21:20:39.679Z,41.35
2019-01-24T21:23:08.983Z,35.78
2019-01-24T21:25:37.920Z,40.35
2019-01-24T21:28:07.146Z,41.75
2019-01-24T21:30:37.099Z,45.17
2019-01-24T21:33:07.524Z,43.80
2019-01-24T21:35:36.673Z,38.13
2019-01-24T21:38:07.572Z,39.05
2019-01-24T21:40:36.977Z,39.50
2019-01-24T21:43:06.404Z,43.70
2019-01-24T21:45:35.832Z,45.75
2019-01-24T21:48:05.806Z,42.00
2019-01-24T21:50:35.033Z,45.45
2019-01-24T21:53:04.837Z,43.63
2019-01-24T21:55:34.288Z,41.08
2019-01-24T21:58:03.739Z,44.15
2019-01-24T22:00:33.112Z,42.15
2019-01-24T22:03:02.339Z,41.85
2019-01-24T22:05:35.445Z,38.78
2019-01-24T22:08:04.776Z,42.60
2019-01-24T22:10:37.049Z,47.90
2019-01-24T22:13:07.726Z,43.68
2019-01-24T22:15:36.790Z,47.58
2019-01-24T22:18:06.324Z,44.05
2019-01-24T22:20:35.604Z,43.65
2019-01-24T22:23:05.183Z,43.65
2019-01-24T22:25:35.342Z,43.70
2019-01-24T22:28:05.081Z,43.65
2019-01-24T22:30:42.312Z,44.48
2019-01-24T22:33:11.597Z,53.95
2019-01-24T22:35:43.516Z,45.85
2019-01-24T22:38:12.437Z,59.80
2019-01-24T22:40:41.333Z,52.88
2019-01-24T22:43:10.817Z,40.60
2019-01-24T22:45:39.894Z,43.23
2019-01-24T22:48:12.332Z,43.63
2019-01-24T22:50:41.346Z,44.55
2019-01-24T22:53:10.510Z,39.42
2019-01-24T22:55:39.846Z,55.35
2019-01-24T22:58:08.901Z,46.35
2019-01-24T23:01:06.524Z,41.70
2019-01-24T23:03:39.165Z,48.38
2019-01-24T23:06:08.188Z,41.58
2019-01-24T23:08:37.335Z,47.62
2019-01-24T23:11:06.873Z,51.70
2019-01-24T23:13:37.945Z,55.03
2019-01-24T23:16:07.270Z,45.30
2019-01-24T23:18:36.211Z,53.23
2019-01-24T23:21:06.002Z,55.15
2019-01-24T23:23:35.371Z,51.28
2019-01-24T23:26:04.595Z,45.45
2019-01-24T23:28:42.309Z,58.50
2019-01-24T23:31:22.309Z,60.63
2019-01-24T23:33:52.411Z,54.55
2019-01-24T23:36:21.414Z,49.98
2019-01-24T23:38:53.400Z,46.05
2019-01-24T23:41:24.107Z,53.15
2019-01-24T23:43:59.129Z,49.67
2019-01-24T23:46:28.169Z,58.78
2019-01-24T23:48:57.027Z,46.45
2019-01-24T23:51:26.229Z,42.85
2019-01-24T23:53:55.379Z,48.35
2019-01-24T23:56:24.443Z,44.53
2019-01-24T23:58:54.703Z,42.73
